createdAt,value
2023-01-02T00:00:30.488Z,10.89
2023-01-02T00:05:33.372Z,10.90
2023-01-02T00:10:36.150Z,11.05
2023-01-02T00:15:40.317Z,11.02
2023-01-02T00:20:43.146Z,11.04
2023-01-02T00:25:45.943Z,10.99
2023-01-02T00:30:50.716Z,11.03
2023-01-02T00:35:53.559Z,11.10
2023-01-02T00:40:56.518Z,11.21
2023-01-02T00:46:04.835Z,11.01
2023-01-02T00:51:10.536Z,11.24
2023-01-02T00:56:13.811Z,11.36
2023-01-02T01:01:18.144Z,11.65
2023-01-02T01:06:21.431Z,11.69
2023-01-02T01:11:24.212Z,11.82
2023-01-02T01:16:28.441Z,11.98
2023-01-02T01:21:31.353Z,12.11
2023-01-02T01:26:34.693Z,12.02
2023-01-02T01:31:38.882Z,11.80
2023-01-02T01:36:41.728Z,11.82
2023-01-02T01:41:44.543Z,11.91
2023-01-02T01:46:48.915Z,11.84
2023-01-02T01:51:53.833Z,12.10
2023-01-02T01:57:00.773Z,12.13
2023-01-02T02:02:05.100Z,12.25
2023-01-02T02:07:08.471Z,12.10
2023-01-02T02:12:12.920Z,12.33
2023-01-02T02:17:24.450Z,12.20
2023-01-02T02:22:50.560Z,12.22
2023-01-02T02:28:25.625Z,12.20
2023-01-02T02:33:41.586Z,11.77
2023-01-02T02:38:58.497Z,11.35
2023-01-02T02:44:15.887Z,11.79
2023-01-02T02:49:33.607Z,12.12
2023-01-02T02:54:41.139Z,11.71
2023-01-02T02:59:44.454Z,11.99
2023-01-02T03:04:52.108Z,11.95
2023-01-02T03:10:07.706Z,11.91
2023-01-02T03:15:17.697Z,11.78
2023-01-02T03:20:26.061Z,11.72
2023-01-02T03:25:29.855Z,11.58
2023-01-02T03:30:38.251Z,11.61
2023-01-02T03:35:46.534Z,11.56
2023-01-02T03:40:53.847Z,11.73
2023-01-02T03:46:05.578Z,11.63
2023-01-02T03:51:10.395Z,11.54
2023-01-02T03:56:21.722Z,11.72
2023-01-02T04:01:35.656Z,11.82
2023-01-02T04:06:44.785Z,11.82
2023-01-02T04:11:53.435Z,11.99
2023-01-02T04:16:59.351Z,11.78
2023-01-02T04:22:08.384Z,11.75
2023-01-02T04:27:16.101Z,11.92
2023-01-02T04:32:23.734Z,11.98
2023-01-02T04:37:30.403Z,11.95
2023-01-02T04:42:33.199Z,11.64
2023-01-02T04:47:36.011Z,11.49
2023-01-02T04:52:40.156Z,10.90
2023-01-02T04:57:42.984Z,10.80
2023-01-02T05:02:45.861Z,10.73
2023-01-02T05:07:50.191Z,10.99
2023-01-02T05:12:52.982Z,10.66
2023-01-02T05:17:58.037Z,10.59
2023-01-02T05:23:19.578Z,10.81
2023-01-02T05:28:22.392Z,10.83
2023-01-02T05:33:25.246Z,10.74
2023-01-02T05:38:31.823Z,10.78
2023-01-02T05:43:36.341Z,10.80
2023-01-02T05:48:39.639Z,10.88
2023-01-02T05:53:44.007Z,11.10
2023-01-02T05:58:48.819Z,11.15
2023-01-02T06:03:53.472Z,11.23
2023-01-02T06:08:58.810Z,11.39
2023-01-02T06:14:01.941Z,11.64
2023-01-02T06:19:05.212Z,11.81
2023-01-02T06:24:09.567Z,11.71
2023-01-02T06:29:12.962Z,11.86
2023-01-02T06:34:17.834Z,11.95
2023-01-02T06:39:22.181Z,11.84
2023-01-02T06:44:24.955Z,11.58
2023-01-02T06:49:27.686Z,11.69
2023-01-02T06:54:31.597Z,11.86
2023-01-02T06:59:34.335Z,11.63
2023-01-02T07:04:37.086Z,11.97
2023-01-02T07:09:41.232Z,12.20
2023-01-02T07:14:44.399Z,12.04
2023-01-02T07:19:53.248Z,12.03
2023-01-02T07:24:58.621Z,11.76
2023-01-02T07:30:01.484Z,11.92
2023-01-02T07:35:04.406Z,11.75
2023-01-02T07:40:10.034Z,11.99
2023-01-02T07:45:12.766Z,11.90
2023-01-02T07:50:15.422Z,11.79
2023-01-02T07:55:19.608Z,12.10
2023-01-02T08:00:22.533Z,11.92
2023-01-02T08:05:25.269Z,12.10
2023-01-02T08:10:29.827Z,11.87
2023-01-02T08:15:32.981Z,12.26
2023-01-02T08:20:35.869Z,11.73
2023-01-02T08:25:39.961Z,11.87
2023-01-02T08:30:42.784Z,11.47
2023-01-02T08:35:45.500Z,11.57
2023-01-02T08:40:49.447Z,11.59
2023-01-02T08:45:52.275Z,11.72
2023-01-02T08:50:55.138Z,11.86
2023-01-02T08:56:21.170Z,11.93
2023-01-02T09:01:25.465Z,11.77
2023-01-02T09:06:31.439Z,11.70
2023-01-02T09:11:40.075Z,11.23
2023-01-02T09:16:42.862Z,10.78
2023-01-02T09:21:45.755Z,10.66
2023-01-02T09:26:49.997Z,11.14
2023-01-02T09:31:52.928Z,10.83
2023-01-02T09:36:55.734Z,10.86
2023-01-02T09:42:04.420Z,10.63
2023-01-02T09:47:13.305Z,11.06
2023-01-02T09:52:21.601Z,11.21
2023-01-02T09:57:37.053Z,11.08
2023-01-02T10:03:08.247Z,11.35
2023-01-02T10:08:31.498Z,11.00
2023-01-02T10:14:17.421Z,11.16
2023-01-02T10:19:10.858Z,10.79
2023-01-02T10:24:18.362Z,10.27
2023-01-02T10:29:30.203Z,9.87
2023-01-02T10:34:40.581Z,9.78
2023-01-02T10:39:44.784Z,10.08
2023-01-02T10:44:49.120Z,10.29
2023-01-02T10:49:53.959Z,10.50
2023-01-02T10:55:00.321Z,9.75
2023-01-02T11:00:08.308Z,10.15
2023-01-02T11:05:20.563Z,9.98
2023-01-02T11:10:26.383Z,9.73
2023-01-02T11:15:34.506Z,9.50
2023-01-02T11:20:38.915Z,9.76
2023-01-02T11:25:43.690Z,9.36
2023-01-02T11:30:50.250Z,9.46
2023-01-02T11:35:55.637Z,9.85
2023-01-02T11:41:01.236Z,9.88
2023-01-02T11:46:10.176Z,10.44
2023-01-02T11:51:17.908Z,9.83
2023-01-02T11:56:25.828Z,9.51
2023-01-02T12:01:38.102Z,9.32
2023-01-02T12:06:55.277Z,9.47
2023-01-02T12:12:16.482Z,9.85
2023-01-02T12:17:25.892Z,9.80
2023-01-02T12:22:48.951Z,9.49
2023-01-02T12:27:59.046Z,9.39
2023-01-02T12:33:32.159Z,9.85
2023-01-02T12:38:57.885Z,9.61
2023-01-02T12:44:14.156Z,9.54
2023-01-02T12:49:36.332Z,9.42
2023-01-02T12:54:56.857Z,9.14
2023-01-02T13:00:22.722Z,9.40
2023-01-02T13:05:31.000Z,9.14
2023-01-02T13:10:34.743Z,9.31
2023-01-02T13:15:41.504Z,9.56
2023-01-02T13:20:54.257Z,9.22
2023-01-02T13:25:59.254Z,9.56
2023-01-02T13:31:35.818Z,9.68
2023-01-02T13:36:39.351Z,9.13
2023-01-02T13:42:08.958Z,9.40
2023-01-02T13:47:25.553Z,9.48
2023-01-02T13:52:31.664Z,9.62
2023-01-02T13:57:34.611Z,9.42
2023-01-02T14:02:37.524Z,9.12
2023-01-02T14:07:49.267Z,9.17
2023-01-02T14:12:55.971Z,8.90
2023-01-02T14:18:04.963Z,8.89
2023-01-02T14:23:11.402Z,8.75
2023-01-02T14:28:22.620Z,8.58
2023-01-02T14:33:32.273Z,8.74
2023-01-02T14:38:41.359Z,8.99
2023-01-02T14:43:45.836Z,8.49
2023-01-02T14:48:55.947Z,8.87
2023-01-02T14:54:03.003Z,8.69
2023-01-02T14:59:08.258Z,8.70
2023-01-02T15:04:20.301Z,8.68
2023-01-02T15:09:30.659Z,8.64
2023-01-02T15:14:33.442Z,8.53
2023-01-02T15:19:42.224Z,8.31
2023-01-02T15:24:51.189Z,8.33
2023-01-02T15:29:56.935Z,8.47
2023-01-02T15:35:13.752Z,8.32
2023-01-02T15:40:21.330Z,8.46
2023-01-02T15:45:24.257Z,8.30
2023-01-02T15:50:29.305Z,8.29
2023-01-02T15:55:37.374Z,8.42
2023-01-02T16:00:40.634Z,8.66
2023-01-02T16:05:49.803Z,8.55
2023-01-02T16:11:01.334Z,8.75
2023-01-02T16:16:15.808Z,8.89
2023-01-02T16:21:19.986Z,8.77
2023-01-02T16:26:32.923Z,8.55
2023-01-02T16:31:52.361Z,8.48
2023-01-02T16:37:29.731Z,8.36
2023-01-02T16:42:37.627Z,8.27
2023-01-02T16:47:43.986Z,8.45
2023-01-02T16:52:47.421Z,8.57
2023-01-02T16:57:52.465Z,8.55
2023-01-02T17:02:55.365Z,8.46
2023-01-02T17:07:58.231Z,8.31
2023-01-02T17:13:02.521Z,8.08
2023-01-02T17:18:05.547Z,8.21
2023-01-02T17:23:09.049Z,7.94
2023-01-02T17:28:13.550Z,7.97
2023-01-02T17:33:16.834Z,8.09
2023-01-02T17:38:19.671Z,7.93
2023-01-02T17:43:24.111Z,8.06
2023-01-02T17:48:26.943Z,7.89
2023-01-02T17:53:29.777Z,8.23
2023-01-02T17:58:33.927Z,8.29
2023-01-02T18:03:38.082Z,8.06
2023-01-02T18:08:40.878Z,8.07
2023-01-02T18:13:47.810Z,8.21
2023-01-02T18:18:53.204Z,8.07
2023-01-02T18:23:59.529Z,8.16
2023-01-02T18:29:09.792Z,7.91
2023-01-02T18:34:46.343Z,7.98
2023-01-02T18:39:43.720Z,7.89
2023-01-02T18:44:48.355Z,7.97
2023-01-02T18:49:51.239Z,6.98
2023-01-02T18:54:59.804Z,7.09
2023-01-02T19:00:20.630Z,7.17
2023-01-02T19:05:27.067Z,6.80
2023-01-02T19:10:37.016Z,6.73
2023-01-02T19:15:44.235Z,6.70
2023-01-02T19:20:50.247Z,6.28
2023-01-02T19:25:53.827Z,6.42
2023-01-02T19:30:58.392Z,6.37
2023-01-02T19:36:03.636Z,6.37
2023-01-02T19:41:06.561Z,6.30
2023-01-02T19:46:10.739Z,6.60
2023-01-02T19:51:13.628Z,6.78
2023-01-02T19:56:16.484Z,6.62
2023-01-02T20:01:22.237Z,6.91
2023-01-02T20:06:25.494Z,6.61
2023-01-02T20:11:46.112Z,6.89
2023-01-02T20:16:50.333Z,7.04
2023-01-02T20:21:54.192Z,6.72
2023-01-02T20:26:58.298Z,6.72
2023-01-02T20:32:02.624Z,6.95
2023-01-02T20:37:05.783Z,6.66
2023-01-02T20:42:13.439Z,6.57
2023-01-02T20:47:18.718Z,6.45
2023-01-02T20:52:21.906Z,6.72
2023-01-02T20:57:24.731Z,6.74
2023-01-02T21:02:29.002Z,6.99
2023-01-02T21:07:31.909Z,6.66
2023-01-02T21:12:52.087Z,6.72
2023-01-02T21:17:56.502Z,6.58
2023-01-02T21:22:59.322Z,6.78
2023-01-02T21:28:02.472Z,6.65
2023-01-02T21:33:06.800Z,6.26
2023-01-02T21:38:10.713Z,7.00
2023-01-02T21:43:13.986Z,7.10
2023-01-02T21:48:18.105Z,6.99
2023-01-02T21:53:20.914Z,6.92
2023-01-02T21:58:23.719Z,6.73
2023-01-02T22:03:27.941Z,6.68
2023-01-02T22:08:30.976Z,6.61
2023-01-02T22:13:33.783Z,6.64
2023-01-02T22:18:38.400Z,6.56
2023-01-02T22:23:41.443Z,6.27
2023-01-02T22:28:44.643Z,6.58
2023-01-02T22:33:48.782Z,6.48
2023-01-02T22:39:25.849Z,6.51
2023-01-02T22:44:17.281Z,6.56
2023-01-02T22:49:25.393Z,6.50
2023-01-02T22:54:28.239Z,6.49
2023-01-02T22:59:31.021Z,6.69
2023-01-02T23:04:35.173Z,6.72
2023-01-02T23:09:37.908Z,6.90
2023-01-02T23:14:40.713Z,6.79
2023-01-02T23:19:44.878Z,6.74
2023-01-02T23:24:47.736Z,7.00
2023-01-02T23:29:50.546Z,6.80
2023-01-02T23:34:55.769Z,6.55
2023-01-02T23:39:58.621Z,6.18
2023-01-02T23:45:01.502Z,6.33
2023-01-02T23:50:06.606Z,6.12
2023-01-02T23:55:10.292Z,6.20
